Time;durP1;ratioP1;P1;durP2;ratioP2;P2;SDS_P1;SDS_P2;PMS_P1;PMS_P2;Temp;Humidity;BMP_temperature;BMP_pressure;BME280_temperature;BME280_humidity;BME280_pressure;Samples;Min_cycle;Max_cycle;Signal;HPM_P1;HPM_P2
2021/08/17 00:02:09;;;;;;;66.10;18.90;;;12.90;99.90;;;;;;5041547;28;20044;-54
2021/08/17 00:04:35;;;;;;;50.20;16.58;;;12.90;99.90;;;;;;5039921;28;20029;-58
2021/08/17 00:07:02;;;;;;;49.60;16.75;;;12.90;99.90;;;;;;5036858;28;20503;-56
2021/08/17 00:09:28;;;;;;;57.80;17.25;;;12.90;99.90;;;;;;5037716;28;20390;-58
2021/08/17 00:11:54;;;;;;;47.17;16.38;;;12.90;99.90;;;;;;5033231;28;20155;-58
2021/08/17 00:14:19;;;;;;;58.45;18.20;;;12.90;99.90;;;;;;5036771;28;20082;-57
2021/08/17 00:16:45;;;;;;;51.63;17.63;;;12.90;99.90;;;;;;5033552;28;20032;-57
2021/08/17 00:19:10;;;;;;;64.80;18.90;;;12.90;99.90;;;;;;5035995;28;20036;-58
2021/08/17 00:21:37;;;;;;;52.78;18.48;;;12.90;99.90;;;;;;5043490;28;20060;-58
2021/08/17 00:24:03;;;;;;;60.90;22.92;;;12.90;99.90;;;;;;5037727;23;20056;-60
2021/08/17 00:26:29;;;;;;;67.85;21.67;;;12.90;99.90;;;;;;5016266;28;20024;-62
2021/08/17 00:28:54;;;;;;;68.00;23.27;;;12.90;99.90;;;;;;5028807;28;20026;-62
2021/08/17 00:31:20;;;;;;;71.03;23.85;;;12.90;99.90;;;;;;5030190;28;20034;-62
2021/08/17 00:33:45;;;;;;;74.82;23.80;;;12.90;99.90;;;;;;5019876;28;20030;-62
2021/08/17 00:36:11;;;;;;;75.57;26.33;;;12.90;99.90;;;;;;5015157;28;20030;-62
2021/08/17 00:38:40;;;;;;;65.97;24.25;;;12.90;99.90;;;;;;5022741;28;20026;-62
2021/08/17 00:41:09;;;;;;;78.30;24.58;;;12.90;99.90;;;;;;5013029;28;20022;-61
2021/08/17 00:43:39;;;;;;;61.90;23.48;;;12.90;99.90;;;;;;5025331;28;20017;-60
2021/08/17 00:46:06;;;;;;;70.28;25.55;;;12.90;99.90;;;;;;5023822;28;20022;-62
2021/08/17 00:48:35;;;;;;;67.00;24.10;;;12.90;99.90;;;;;;5014712;28;20101;-62
2021/08/17 00:51:01;;;;;;;74.55;27.75;;;12.90;99.90;;;;;;5015125;28;20385;-62
2021/08/17 00:53:26;;;;;;;72.85;26.67;;;12.90;99.90;;;;;;5020345;28;20028;-62
2021/08/17 00:55:52;;;;;;;73.47;26.95;;;12.90;99.90;;;;;;5027686;28;20040;-61
2021/08/17 00:58:18;;;;;;;91.03;29.80;;;12.90;99.90;;;;;;5021034;28;20488;-62
2021/08/17 01:00:46;;;;;;;81.35;28.88;;;12.80;99.90;;;;;;5022608;28;20022;-61
2021/08/17 01:03:11;;;;;;;73.97;26.48;;;12.80;99.90;;;;;;5018055;28;20013;-62
2021/08/17 01:05:37;;;;;;;81.80;28.63;;;12.80;99.90;;;;;;5027150;28;20493;-61
2021/08/17 01:08:06;;;;;;;73.53;27.85;;;12.80;99.90;;;;;;5019189;28;20026;-62
2021/08/17 01:10:31;;;;;;;77.93;29.42;;;12.80;99.90;;;;;;5021386;28;20022;-62
2021/08/17 01:12:58;;;;;;;74.18;27.33;;;12.80;99.90;;;;;;5022386;28;20032;-62
2021/08/17 01:15:24;;;;;;;65.80;27.17;;;12.90;99.90;;;;;;5022437;28;20020;-62
2021/08/17 01:17:49;;;;;;;81.95;30.40;;;12.80;99.90;;;;;;5018986;28;20022;-59
2021/08/17 01:20:17;;;;;;;95.93;32.53;;;12.80;99.90;;;;;;5016750;28;20098;-63
2021/08/17 01:22:45;;;;;;;82.75;29.95;;;12.80;99.90;;;;;;5021803;28;20108;-62
2021/08/17 01:25:11;;;;;;;74.75;26.80;;;12.90;99.90;;;;;;5026283;28;20048;-62
2021/08/17 01:27:42;;;;;;;95.72;33.42;;;12.90;99.90;;;;;;5020756;28;20073;-62
2021/08/17 01:30:09;;;;;;;85.15;32.38;;;12.80;99.90;;;;;;5015416;28;20022;-62
2021/08/17 01:32:35;;;;;;;101.75;34.80;;;12.90;99.90;;;;;;5014743;28;20022;-62
2021/08/17 01:35:00;;;;;;;109.07;36.90;;;12.90;99.90;;;;;;5022584;28;20029;-62
2021/08/17 01:37:26;;;;;;;93.57;34.33;;;12.90;99.90;;;;;;5016309;28;20552;-61
2021/08/17 01:40:05;;;;;;;104.68;35.95;;;12.90;99.90;;;;;;5023734;28;20029;-62
2021/08/17 01:42:32;;;;;;;101.95;37.58;;;13.00;99.90;;;;;;5020717;28;20112;-62
2021/08/17 01:44:58;;;;;;;103.85;36.55;;;13.00;99.90;;;;;;5022363;28;20028;-62
2021/08/17 01:47:28;;;;;;;96.45;35.75;;;13.00;99.90;;;;;;5017494;28;20018;-62
2021/08/17 01:49:54;;;;;;;98.70;37.45;;;13.00;99.90;;;;;;5023463;28;20531;-62
2021/08/17 01:52:20;;;;;;;120.65;41.25;;;13.10;99.90;;;;;;5020837;28;20017;-61
2021/08/17 01:54:46;;;;;;;102.85;36.22;;;13.10;99.90;;;;;;5019423;28;20025;-62
2021/08/17 01:57:11;;;;;;;112.15;38.78;;;13.10;99.90;;;;;;5016807;28;20029;-62
2021/08/17 01:59:37;;;;;;;129.85;41.03;;;13.20;99.90;;;;;;5014113;28;20041;-62
2021/08/17 02:02:02;;;;;;;108.50;36.15;;;13.10;99.90;;;;;;5018087;28;20393;-62
2021/08/17 02:04:28;;;;;;;107.10;38.10;;;13.10;99.90;;;;;;5014095;28;20026;-62
2021/08/17 02:06:54;;;;;;;107.97;38.10;;;13.10;99.90;;;;;;5018775;28;20165;-62
2021/08/17 02:09:20;;;;;;;114.50;38.65;;;13.20;99.90;;;;;;5014037;28;20120;-61
2021/08/17 02:11:45;;;;;;;119.05;38.38;;;13.20;99.90;;;;;;5013930;28;20591;-63
2021/08/17 02:14:11;;;;;;;112.35;41.53;;;13.20;99.90;;;;;;5019901;28;20033;-61
2021/08/17 02:16:37;;;;;;;111.03;37.97;;;13.20;99.90;;;;;;5017863;28;20014;-62
2021/08/17 02:19:02;;;;;;;111.32;37.85;;;13.20;99.90;;;;;;5016419;28;20041;-62
2021/08/17 02:21:28;;;;;;;110.32;40.17;;;13.20;99.90;;;;;;5016278;28;20361;-60
2021/08/17 02:23:53;;;;;;;114.38;39.53;;;13.20;99.90;;;;;;5012813;28;20042;-61
2021/08/17 02:26:19;;;;;;;110.47;37.13;;;13.20;99.90;;;;;;5016875;28;20117;-61
2021/08/17 02:28:45;;;;;;;104.63;38.47;;;13.20;99.90;;;;;;5014748;28;20106;-62
2021/08/17 02:31:10;;;;;;;105.10;39.08;;;13.20;99.90;;;;;;5022911;28;20022;-62
2021/08/17 02:33:36;;;;;;;110.78;38.90;;;13.30;99.90;;;;;;5018219;28;20057;-62
2021/08/17 02:36:01;;;;;;;108.45;36.42;;;13.20;99.90;;;;;;5011353;28;20022;-61
2021/08/17 02:38:27;;;;;;;108.75;37.20;;;13.20;99.90;;;;;;5019625;28;20392;-60
2021/08/17 02:40:52;;;;;;;108.55;37.95;;;13.20;99.90;;;;;;5017787;28;20018;-61
2021/08/17 02:43:23;;;;;;;101.55;36.55;;;13.20;99.90;;;;;;5013789;28;20025;-61
2021/08/17 02:45:50;;;;;;;97.50;35.33;;;13.10;99.90;;;;;;5017822;28;20052;-62
2021/08/17 02:48:16;;;;;;;103.10;36.72;;;13.10;99.90;;;;;;5021043;28;20076;-61
2021/08/17 02:50:42;;;;;;;100.10;37.40;;;13.00;99.90;;;;;;5013354;28;20045;-62
2021/08/17 02:53:07;;;;;;;111.28;37.65;;;13.10;99.90;;;;;;5020740;28;20075;-62
2021/08/17 02:55:33;;;;;;;101.80;36.40;;;13.00;99.90;;;;;;5012738;28;20092;-59
2021/08/17 02:58:05;;;;;;;97.10;36.35;;;13.00;99.90;;;;;;5019063;28;20068;-61
2021/08/17 03:00:30;;;;;;;112.50;38.47;;;13.00;99.90;;;;;;5014988;28;20060;-62
2021/08/17 03:02:56;;;;;;;109.45;38.35;;;12.90;99.90;;;;;;5022280;28;20061;-61
2021/08/17 03:05:22;;;;;;;113.32;38.38;;;12.80;99.90;;;;;;5011039;28;20137;-62
2021/08/17 03:07:52;;;;;;;105.90;37.85;;;12.80;99.90;;;;;;5011528;28;20037;-61
2021/08/17 03:10:18;;;;;;;104.47;35.08;;;12.80;99.90;;;;;;5018332;28;20484;-61
2021/08/17 03:12:44;;;;;;;105.57;35.88;;;12.80;99.90;;;;;;5016863;28;20101;-62
2021/08/17 03:15:10;;;;;;;100.78;34.63;;;12.70;99.90;;;;;;5016494;28;20049;-61
2021/08/17 03:17:37;;;;;;;104.88;36.47;;;12.60;99.90;;;;;;5017342;28;20490;-62
2021/08/17 03:20:06;;;;;;;108.30;35.58;;;12.60;99.90;;;;;;5016566;28;20049;-59
2021/08/17 03:22:31;;;;;;;99.63;33.75;;;12.60;99.90;;;;;;5013934;28;20051;-61
2021/08/17 03:24:57;;;;;;;96.63;35.40;;;12.50;99.90;;;;;;5015021;28;20029;-60
2021/08/17 03:27:22;;;;;;;103.53;35.53;;;12.40;99.90;;;;;;5021189;28;20036;-62
2021/08/17 03:29:48;;;;;;;114.38;37.17;;;12.30;99.90;;;;;;5020351;28;20113;-63
2021/08/17 03:32:14;;;;;;;107.63;35.88;;;12.20;99.90;;;;;;5012427;28;20036;-62
2021/08/17 03:34:39;;;;;;;116.90;36.88;;;12.20;99.90;;;;;;5015030;28;20069;-60
2021/08/17 03:37:05;;;;;;;95.95;35.17;;;12.20;99.90;;;;;;5015202;28;20029;-62
2021/08/17 03:39:30;;;;;;;107.18;36.55;;;12.10;99.90;;;;;;5014634;28;20425;-62
2021/08/17 03:41:56;;;;;;;104.68;35.22;;;12.10;99.90;;;;;;5021721;28;20032;-62
2021/08/17 03:44:21;;;;;;;103.30;36.40;;;12.10;99.90;;;;;;5015227;28;20091;-61
2021/08/17 03:46:47;;;;;;;102.05;36.88;;;12.10;99.90;;;;;;5014767;28;20041;-62
2021/08/17 03:49:12;;;;;;;107.20;34.80;;;12.00;99.90;;;;;;5023101;28;20076;-62
2021/08/17 03:51:38;;;;;;;107.88;34.75;;;11.90;99.90;;;;;;5009852;28;20495;-62
2021/08/17 03:54:03;;;;;;;107.43;34.25;;;11.90;99.90;;;;;;5014625;28;20436;-62
2021/08/17 03:56:29;;;;;;;111.65;36.03;;;11.90;99.90;;;;;;5020504;28;20045;-62
2021/08/17 03:58:54;;;;;;;87.93;32.78;;;11.90;99.90;;;;;;5015911;28;20469;-62
2021/08/17 04:01:20;;;;;;;112.97;36.58;;;11.90;99.90;;;;;;5015555;28;20369;-61
2021/08/17 04:03:45;;;;;;;103.70;35.28;;;11.90;99.90;;;;;;5015364;28;20547;-61
2021/08/17 04:06:11;;;;;;;105.07;35.25;;;11.90;99.90;;;;;;5014558;28;20042;-62
2021/08/17 04:08:37;;;;;;;99.95;33.58;;;12.00;99.90;;;;;;5020891;28;20388;-62
2021/08/17 04:11:03;;;;;;;109.45;36.28;;;11.90;99.90;;;;;;5016779;28;20029;-61
2021/08/17 04:13:29;;;;;;;90.95;32.28;;;12.00;99.90;;;;;;5014959;28;20029;-61
2021/08/17 04:15:54;;;;;;;99.53;33.60;;;12.00;99.90;;;;;;5013770;28;20021;-62
2021/08/17 04:18:20;;;;;;;98.43;33.25;;;12.00;99.90;;;;;;5023868;28;20040;-62
2021/08/17 04:20:45;;;;;;;104.63;33.75;;;12.10;99.90;;;;;;5020898;28;20018;-61
2021/08/17 04:23:11;;;;;;;97.15;33.65;;;12.10;99.90;;;;;;5019708;28;20026;-61
2021/08/17 04:25:36;;;;;;;98.25;34.72;;;12.20;99.90;;;;;;5016484;28;20026;-61
2021/08/17 04:28:02;;;;;;;93.13;32.47;;;12.20;99.90;;;;;;5022259;28;20481;-63
2021/08/17 04:30:28;;;;;;;90.93;34.03;;;12.30;99.90;;;;;;5018720;28;20033;-61
2021/08/17 04:32:53;;;;;;;103.07;34.85;;;12.30;99.90;;;;;;5016777;28;20098;-61
2021/08/17 04:35:19;;;;;;;101.50;34.70;;;12.30;99.90;;;;;;5023687;28;20018;-61
2021/08/17 04:37:46;;;;;;;96.05;33.58;;;12.40;99.90;;;;;;5028767;28;20029;-60
2021/08/17 04:40:12;;;;;;;85.90;31.77;;;12.40;99.90;;;;;;5021826;28;20014;-61
2021/08/17 04:42:38;;;;;;;89.25;31.77;;;12.50;99.90;;;;;;5026453;28;20112;-61
2021/08/17 04:45:04;;;;;;;92.38;32.25;;;12.60;99.90;;;;;;5012875;28;20597;-62
2021/08/17 04:47:30;;;;;;;82.95;31.77;;;12.60;99.90;;;;;;5018441;28;20068;-62
2021/08/17 04:49:55;;;;;;;90.97;33.13;;;12.70;99.90;;;;;;5023836;28;20112;-62
2021/08/17 04:52:21;;;;;;;83.97;28.88;;;12.80;99.90;;;;;;5022853;28;20103;-61
2021/08/17 04:54:47;;;;;;;92.25;30.98;;;12.80;99.90;;;;;;5019718;28;20112;-62
2021/08/17 04:57:13;;;;;;;96.22;33.95;;;12.90;99.90;;;;;;5019229;28;20483;-62
2021/08/17 04:59:39;;;;;;;84.95;30.38;;;12.90;99.90;;;;;;5020801;28;20033;-62
2021/08/17 05:02:05;;;;;;;94.55;32.58;;;12.90;99.90;;;;;;5019387;28;20469;-61
2021/08/17 05:04:31;;;;;;;93.28;32.88;;;13.00;99.90;;;;;;5017997;28;20512;-61
2021/08/17 05:06:56;;;;;;;94.15;31.38;;;13.00;99.90;;;;;;5014588;28;20026;-61
2021/08/17 05:09:22;;;;;;;89.45;32.28;;;13.00;99.90;;;;;;5030453;28;20033;-62
2021/08/17 05:11:48;;;;;;;77.07;30.70;;;13.00;99.90;;;;;;5020130;28;20100;-62
2021/08/17 05:14:13;;;;;;;93.25;33.40;;;13.00;99.90;;;;;;5019152;28;20050;-62
2021/08/17 05:16:39;;;;;;;94.72;32.92;;;13.10;99.90;;;;;;5020218;28;20097;-62
2021/08/17 05:19:05;;;;;;;83.82;30.17;;;13.10;99.90;;;;;;5024951;28;20022;-61
2021/08/17 05:21:30;;;;;;;85.57;30.40;;;13.10;99.90;;;;;;5016966;28;20076;-64
2021/08/17 05:23:56;;;;;;;74.13;29.00;;;13.20;99.90;;;;;;5017565;28;20038;-63
2021/08/17 05:26:23;;;;;;;86.35;30.48;;;13.20;99.90;;;;;;5016189;28;20037;-62
2021/08/17 05:28:48;;;;;;;92.28;32.40;;;13.30;99.90;;;;;;5018447;28;20052;-61
2021/08/17 05:31:14;;;;;;;85.30;31.88;;;13.40;99.90;;;;;;5013872;28;20061;-62
2021/08/17 05:33:39;;;;;;;78.25;30.02;;;13.40;99.90;;;;;;5023045;28;20029;-63
2021/08/17 05:36:05;;;;;;;83.43;30.08;;;13.50;99.90;;;;;;5012831;28;20030;-63
2021/08/17 05:38:31;;;;;;;83.35;30.08;;;13.60;99.90;;;;;;5015295;28;20030;-62
2021/08/17 05:40:56;;;;;;;86.80;30.27;;;13.70;99.90;;;;;;5022513;28;20053;-62
2021/08/17 05:43:22;;;;;;;78.53;29.02;;;13.70;99.90;;;;;;5018784;28;20041;-62
2021/08/17 05:45:47;;;;;;;83.10;31.70;;;13.80;99.90;;;;;;5020038;28;20395;-63
2021/08/17 05:48:13;;;;;;;78.80;29.20;;;13.80;99.90;;;;;;5017965;28;20033;-63
2021/08/17 05:50:38;;;;;;;89.78;30.63;;;13.90;99.90;;;;;;5021398;28;20037;-60
2021/08/17 05:53:04;;;;;;;77.35;29.83;;;13.90;99.90;;;;;;5016589;28;20076;-62
2021/08/17 05:55:29;;;;;;;79.35;29.80;;;13.90;99.90;;;;;;5019334;28;20025;-62
2021/08/17 05:58:00;;;;;;;78.35;29.60;;;14.00;99.90;;;;;;5014362;28;20028;-63
2021/08/17 06:00:26;;;;;;;79.30;27.77;;;14.00;99.90;;;;;;5016137;28;20030;-59
2021/08/17 06:02:52;;;;;;;77.57;28.88;;;14.00;99.90;;;;;;5024946;28;20021;-64
2021/08/17 06:05:18;;;;;;;78.38;28.75;;;14.10;99.90;;;;;;5015659;28;20029;-62
2021/08/17 06:07:45;;;;;;;75.32;29.63;;;14.20;99.90;;;;;;5016391;28;20029;-63
2021/08/17 06:10:11;;;;;;;76.03;29.02;;;14.20;99.90;;;;;;5016011;28;20686;-62
2021/08/17 06:12:37;;;;;;;76.60;30.45;;;14.20;99.90;;;;;;5015849;28;20190;-63
2021/08/17 06:15:03;;;;;;;77.35;28.48;;;14.20;99.90;;;;;;5024796;28;20049;-61
2021/08/17 06:17:28;;;;;;;79.28;30.55;;;14.30;99.90;;;;;;5030090;28;20729;-61
2021/08/17 06:19:54;;;;;;;81.93;30.50;;;14.30;99.90;;;;;;5019317;28;20029;-61
2021/08/17 06:22:19;;;;;;;84.03;30.88;;;14.40;99.90;;;;;;5021337;28;20041;-62
2021/08/17 06:24:45;;;;;;;75.53;28.85;;;14.50;99.90;;;;;;5049301;23;20045;-63
2021/08/17 06:27:11;;;;;;;79.00;29.42;;;14.60;99.90;;;;;;5043717;28;20037;-61
2021/08/17 06:29:36;;;;;;;70.60;28.42;;;14.70;99.90;;;;;;5038960;28;20070;-62
2021/08/17 06:32:02;;;;;;;65.38;27.42;;;14.80;99.90;;;;;;5040409;28;20025;-66
2021/08/17 06:34:28;;;;;;;70.28;27.48;;;14.90;99.90;;;;;;5029858;28;20037;-65
2021/08/17 06:36:53;;;;;;;76.80;29.08;;;14.90;99.90;;;;;;5025515;28;20033;-63
2021/08/17 06:39:20;;;;;;;79.90;28.77;;;14.90;99.90;;;;;;5026403;28;20040;-63
2021/08/17 06:41:47;;;;;;;80.13;28.70;;;15.00;99.90;;;;;;5023785;28;20033;-65
2021/08/17 06:44:14;;;;;;;77.22;28.60;;;15.00;99.90;;;;;;5025351;28;20021;-63
2021/08/17 06:46:39;;;;;;;81.10;30.60;;;15.10;99.90;;;;;;5027832;28;20113;-62
2021/08/17 06:49:05;;;;;;;72.10;28.55;;;15.10;99.90;;;;;;5019618;28;20974;-65
2021/08/17 06:51:31;;;;;;;71.28;28.15;;;15.30;99.90;;;;;;5020988;28;20540;-63
2021/08/17 06:53:56;;;;;;;68.93;29.20;;;15.40;99.90;;;;;;5025901;28;20079;-64
2021/08/17 06:56:22;;;;;;;73.10;27.27;;;15.50;99.90;;;;;;5024697;28;20017;-63
2021/08/17 06:58:47;;;;;;;68.95;27.40;;;15.50;99.90;;;;;;5025184;28;20044;-62
2021/08/17 07:01:13;;;;;;;73.13;28.77;;;15.60;99.90;;;;;;5026198;28;20021;-62
2021/08/17 07:03:39;;;;;;;70.00;27.33;;;15.70;99.90;;;;;;5004416;28;20399;-65
2021/08/17 07:06:05;;;;;;;64.38;27.48;;;15.70;99.90;;;;;;5019056;28;20052;-63
2021/08/17 07:08:31;;;;;;;61.35;27.75;;;15.80;99.90;;;;;;5018793;28;20129;-62
2021/08/17 07:10:56;;;;;;;66.20;27.17;;;15.80;99.90;;;;;;5020947;28;20093;-63
2021/08/17 07:13:23;;;;;;;70.82;26.25;;;15.90;99.90;;;;;;5022026;28;20080;-63
2021/08/17 07:15:49;;;;;;;72.68;29.30;;;15.90;99.90;;;;;;5020272;28;20083;-62
2021/08/17 07:18:14;;;;;;;61.35;25.67;;;16.00;99.90;;;;;;5020730;28;20095;-62
2021/08/17 07:20:40;;;;;;;70.47;28.23;;;16.00;99.90;;;;;;5016160;28;20082;-63
2021/08/17 07:23:06;;;;;;;68.35;28.48;;;16.00;99.90;;;;;;5022511;28;20061;-63
2021/08/17 07:25:32;;;;;;;64.97;27.98;;;16.10;99.90;;;;;;5028629;28;20034;-59
2021/08/17 07:27:57;;;;;;;64.88;28.13;;;16.10;99.90;;;;;;5021694;28;20104;-63
2021/08/17 07:30:23;;;;;;;69.35;26.02;;;16.20;99.90;;;;;;5015891;28;20042;-63
2021/08/17 07:32:49;;;;;;;64.65;26.17;;;16.20;99.90;;;;;;5014124;28;20026;-62
2021/08/17 07:35:17;;;;;;;63.45;27.02;;;16.20;99.90;;;;;;5024827;28;20473;-64
2021/08/17 07:37:45;;;;;;;63.97;25.88;;;16.20;99.90;;;;;;5021012;28;20549;-62
2021/08/17 07:40:11;;;;;;;56.65;25.15;;;16.20;99.90;;;;;;5016900;28;20038;-61
2021/08/17 07:42:38;;;;;;;64.18;27.15;;;16.30;99.90;;;;;;5021605;28;20018;-61
2021/08/17 07:45:05;;;;;;;72.07;27.90;;;16.30;99.90;;;;;;5021258;28;20055;-61
2021/08/17 07:47:31;;;;;;;64.55;24.85;;;16.30;99.90;;;;;;5015310;28;20121;-63
2021/08/17 07:49:56;;;;;;;57.08;25.92;;;16.20;99.90;;;;;;5000057;28;20549;-62
2021/08/17 07:52:22;;;;;;;65.88;26.20;;;16.20;99.90;;;;;;5017051;28;20033;-63
2021/08/17 07:54:48;;;;;;;71.00;26.60;;;16.10;99.90;;;;;;5012251;28;20088;-62
2021/08/17 07:57:13;;;;;;;61.88;25.95;;;16.10;99.90;;;;;;5025467;28;20038;-63
2021/08/17 07:59:39;;;;;;;65.07;26.60;;;16.10;99.90;;;;;;5020698;28;20067;-65
2021/08/17 08:02:05;;;;;;;57.83;24.92;;;16.10;99.90;;;;;;5023738;28;20044;-64
2021/08/17 08:04:30;;;;;;;63.83;27.45;;;16.10;99.90;;;;;;5016402;28;20083;-63
2021/08/17 08:06:56;;;;;;;57.80;25.88;;;16.10;99.90;;;;;;5019892;28;20021;-63
2021/08/17 08:09:21;;;;;;;66.43;28.38;;;16.20;99.90;;;;;;5020891;28;20040;-64
2021/08/17 08:11:47;;;;;;;63.20;25.33;;;16.30;99.90;;;;;;5016543;28;20046;-63
2021/08/17 08:14:12;;;;;;;56.60;24.85;;;16.40;99.90;;;;;;5024391;28;20484;-65
2021/08/17 08:16:38;;;;;;;53.72;25.58;;;16.50;99.90;;;;;;5020717;28;20493;-64
2021/08/17 08:19:06;;;;;;;57.42;24.02;;;16.60;99.90;;;;;;5026764;28;20026;-64
2021/08/17 08:21:32;;;;;;;53.30;23.48;;;16.70;99.90;;;;;;5020783;28;20029;-63
2021/08/17 08:23:58;;;;;;;63.10;25.40;;;16.90;99.90;;;;;;5016998;28;20065;-62
2021/08/17 08:26:24;;;;;;;57.85;23.63;;;17.00;99.90;;;;;;5020911;28;20060;-62
2021/08/17 08:28:50;;;;;;;48.95;22.83;;;16.90;99.90;;;;;;5029190;28;20080;-63
2021/08/17 08:31:15;;;;;;;61.83;23.60;;;17.00;99.90;;;;;;5023275;28;20029;-63
2021/08/17 08:33:41;;;;;;;50.38;23.45;;;17.10;99.90;;;;;;5029788;28;20760;-63
2021/08/17 08:36:08;;;;;;;45.17;21.63;;;17.10;99.90;;;;;;5022770;28;20401;-62
2021/08/17 08:38:34;;;;;;;48.60;21.83;;;17.10;99.90;;;;;;5022579;28;21027;-62
2021/08/17 08:41:00;;;;;;;47.70;22.63;;;17.30;99.90;;;;;;5025827;28;20030;-62
2021/08/17 08:43:25;;;;;;;55.20;24.10;;;17.30;99.90;;;;;;5021785;28;20037;-63
2021/08/17 08:45:51;;;;;;;57.63;22.13;;;17.30;99.90;;;;;;5025685;28;20026;-63
2021/08/17 08:48:20;;;;;;;48.72;20.63;;;17.30;99.90;;;;;;5019969;28;20470;-63
2021/08/17 08:50:45;;;;;;;45.03;20.08;;;17.10;99.90;;;;;;5021002;28;20021;-63
2021/08/17 08:53:12;;;;;;;46.13;20.52;;;17.20;99.90;;;;;;5022815;28;20076;-64
2021/08/17 08:55:38;;;;;;;53.03;22.00;;;17.20;99.90;;;;;;5022668;28;20021;-64
2021/08/17 08:58:05;;;;;;;46.20;19.83;;;17.40;99.90;;;;;;5023686;28;20024;-62
2021/08/17 09:00:31;;;;;;;42.35;19.67;;;17.50;99.90;;;;;;5023541;28;20021;-62
2021/08/17 09:02:57;;;;;;;52.95;20.75;;;17.50;99.90;;;;;;5027136;28;20026;-61
2021/08/17 09:05:23;;;;;;;43.95;20.25;;;17.40;99.90;;;;;;5013086;28;20551;-61
2021/08/17 09:07:50;;;;;;;45.67;21.35;;;17.30;99.90;;;;;;5019475;28;20078;-63
2021/08/17 09:10:21;;;;;;;52.58;21.63;;;17.30;99.90;;;;;;5025795;28;20025;-61
2021/08/17 09:12:50;;;;;;;46.90;20.65;;;17.30;99.90;;;;;;5021043;28;20057;-62
2021/08/17 09:15:22;;;;;;;49.28;20.40;;;17.30;99.90;;;;;;5013947;28;20041;-63
2021/08/17 09:18:08;;;;;;;45.35;20.83;;;17.30;99.90;;;;;;5026655;28;20014;-64
2021/08/17 09:20:40;;;;;;;48.20;20.25;;;17.40;99.90;;;;;;5022161;28;20858;-63
2021/08/17 09:23:36;;;;;;;48.13;21.30;;;17.70;99.90;;;;;;5025599;28;20467;-63
2021/08/17 09:26:22;;;;;;;48.00;21.58;;;17.70;99.90;;;;;;5024043;28;20043;-64
2021/08/17 09:28:56;;;;;;;48.45;20.55;;;17.80;99.90;;;;;;5021867;28;20476;-64
2021/08/17 09:31:31;;;;;;;48.47;21.00;;;17.70;99.90;;;;;;5022572;28;20033;-62
2021/08/17 09:33:57;;;;;;;48.05;20.73;;;17.80;99.90;;;;;;5025990;28;20645;-63
2021/08/17 09:36:23;;;;;;;49.55;22.23;;;17.80;99.90;;;;;;5022023;28;20034;-65
2021/08/17 09:38:48;;;;;;;50.13;21.20;;;18.00;99.90;;;;;;5028000;28;20032;-62
2021/08/17 09:41:23;;;;;;;48.17;20.70;;;17.90;99.90;;;;;;5022520;28;20025;-64
2021/08/17 09:44:00;;;;;;;52.45;20.20;;;17.90;99.90;;;;;;5021338;28;20524;-64
2021/08/17 09:46:35;;;;;;;42.45;20.10;;;18.00;99.90;;;;;;5024620;28;20549;-63
2021/08/17 09:49:31;;;;;;;52.38;19.85;;;17.90;99.90;;;;;;5009020;28;20584;-63
2021/08/17 09:52:09;;;;;;;46.15;21.05;;;17.90;99.90;;;;;;5024722;28;20037;-65
2021/08/17 09:54:38;;;;;;;44.97;20.42;;;17.70;99.90;;;;;;5023599;28;20497;-64
2021/08/17 09:57:05;;;;;;;42.47;19.60;;;17.60;99.90;;;;;;5022851;28;20560;-62
2021/08/17 09:59:34;;;;;;;39.15;19.08;;;17.60;99.90;;;;;;5028543;28;20040;-64
2021/08/17 10:02:00;;;;;;;48.75;19.90;;;17.50;99.90;;;;;;5013807;28;20570;-63
2021/08/17 10:04:26;;;;;;;51.60;19.98;;;17.50;99.90;;;;;;5014997;28;20029;-63
2021/08/17 10:06:54;;;;;;;42.47;19.02;;;17.50;99.90;;;;;;5013693;28;20489;-64
2021/08/17 10:09:22;;;;;;;41.40;20.17;;;17.70;99.90;;;;;;5011806;28;20029;-64
2021/08/17 10:11:48;;;;;;;45.22;20.42;;;17.70;99.90;;;;;;5019815;28;20029;-63
2021/08/17 10:14:14;;;;;;;41.22;19.20;;;17.70;99.90;;;;;;5025150;28;20071;-63
2021/08/17 10:16:42;;;;;;;42.80;20.60;;;17.70;99.90;;;;;;5015565;28;20033;-63
2021/08/17 10:19:08;;;;;;;43.70;19.85;;;17.70;99.90;;;;;;5019037;28;20034;-63
2021/08/17 10:21:37;;;;;;;44.80;19.30;;;17.70;99.90;;;;;;5016297;28;20029;-64
2021/08/17 10:24:29;;;;;;;45.13;19.05;;;17.60;99.90;;;;;;5024726;28;20052;-62
2021/08/17 10:27:14;;;;;;;39.83;18.92;;;17.60;99.90;;;;;;5020357;28;20432;-61
2021/08/17 10:30:10;;;;;;;40.63;19.77;;;17.60;99.90;;;;;;5026690;28;20531;-64
2021/08/17 10:32:40;;;;;;;38.60;18.88;;;17.50;99.90;;;;;;5031929;28;20547;-61
2021/08/17 10:35:07;;;;;;;40.97;19.77;;;17.60;99.90;;;;;;5032658;28;20030;-64
2021/08/17 10:37:32;;;;;;;40.03;19.08;;;17.60;99.90;;;;;;5031794;28;20531;-65
2021/08/17 10:39:58;;;;;;;38.63;18.80;;;17.60;99.90;;;;;;5021679;28;20029;-61
2021/08/17 10:42:26;;;;;;;48.70;19.83;;;17.60;99.90;;;;;;5026855;28;20493;-63
2021/08/17 10:44:53;;;;;;;45.97;20.33;;;17.60;99.90;;;;;;5024966;28;20158;-63
2021/08/17 10:47:37;;;;;;;36.38;19.20;;;17.60;99.90;;;;;;5024782;28;20505;-64
2021/08/17 10:50:03;;;;;;;41.03;19.88;;;17.60;99.90;;;;;;5015700;28;20025;-62
2021/08/17 10:52:31;;;;;;;39.83;19.75;;;17.60;99.90;;;;;;5019298;28;20509;-64
2021/08/17 10:55:20;;;;;;;37.75;18.85;;;17.60;99.90;;;;;;5021039;28;20102;-63
2021/08/17 10:57:59;;;;;;;41.42;19.38;;;17.50;99.90;;;;;;5022126;28;20552;-62
2021/08/17 11:00:49;;;;;;;41.55;20.02;;;17.40;99.90;;;;;;5014226;28;20091;-65
2021/08/17 11:03:39;;;;;;;45.90;20.67;;;17.40;99.90;;;;;;5017578;28;20026;-62
2021/08/17 11:06:05;;;;;;;37.70;19.05;;;17.40;99.90;;;;;;5021576;28;20017;-63
2021/08/17 11:08:30;;;;;;;42.97;19.60;;;17.40;99.90;;;;;;5028461;28;20087;-61
2021/08/17 11:10:56;;;;;;;41.58;17.02;;;17.50;99.90;;;;;;5020990;28;20025;-61
2021/08/17 11:13:25;;;;;;;38.72;19.23;;;17.50;99.90;;;;;;5020007;28;20088;-63
2021/08/17 11:16:07;;;;;;;37.15;18.73;;;17.50;99.90;;;;;;5022827;28;20379;-62
2021/08/17 11:19:02;;;;;;;45.05;19.23;;;17.40;99.90;;;;;;5039112;28;20017;-64
2021/08/17 11:21:58;;;;;;;40.30;19.30;;;17.40;99.90;;;;;;5022877;28;20030;-62
2021/08/17 11:24:23;;;;;;;42.22;18.13;;;17.50;99.90;;;;;;5011361;28;20041;-63
2021/08/17 11:27:00;;;;;;;41.38;18.15;;;17.50;99.90;;;;;;5016518;28;20026;-63
2021/08/17 11:29:56;;;;;;;41.75;18.98;;;17.50;99.90;;;;;;5023699;28;20033;-63
2021/08/17 11:32:31;;;;;;;41.50;19.65;;;17.50;99.90;;;;;;5028573;28;20174;-62
2021/08/17 11:35:09;;;;;;;46.05;19.63;;;17.40;99.90;;;;;;5021588;28;20080;-63
2021/08/17 11:37:37;;;;;;;35.03;17.25;;;17.30;99.90;;;;;;5018311;28;20017;-60
2021/08/17 11:40:06;;;;;;;48.15;17.60;;;17.30;99.90;;;;;;5023764;28;20112;-64
2021/08/17 11:42:37;;;;;;;37.25;16.73;;;17.30;99.90;;;;;;5026583;28;20024;-62
2021/08/17 11:45:07;;;;;;;33.55;15.75;;;17.30;99.90;;;;;;5025217;28;20426;-63
2021/08/17 11:47:33;;;;;;;33.10;15.38;;;17.20;99.90;;;;;;5012025;28;20032;-63
2021/08/17 11:50:01;;;;;;;32.38;14.90;;;17.20;99.90;;;;;;5010081;28;20060;-62
2021/08/17 11:52:34;;;;;;;27.52;12.98;;;17.10;99.90;;;;;;5021152;28;20030;-63
2021/08/17 11:55:11;;;;;;;30.17;13.77;;;17.10;99.90;;;;;;5019221;28;20075;-62
2021/08/17 11:57:46;;;;;;;32.40;14.13;;;17.00;99.90;;;;;;5012124;28;20044;-61
2021/08/17 12:00:14;;;;;;;27.77;13.18;;;17.00;99.90;;;;;;5012332;28;20454;-61
2021/08/17 12:02:42;;;;;;;28.55;13.43;;;17.00;99.90;;;;;;5023101;28;20540;-62
2021/08/17 12:05:11;;;;;;;30.98;13.43;;;17.00;99.90;;;;;;5024794;28;20026;-60
2021/08/17 12:07:37;;;;;;;30.30;13.10;;;17.00;99.90;;;;;;5027769;28;20401;-63
2021/08/17 12:10:10;;;;;;;30.48;14.55;;;17.00;99.90;;;;;;5019236;28;20049;-63
2021/08/17 12:12:58;;;;;;;27.38;12.23;;;17.00;99.90;;;;;;5020844;28;20572;-62
2021/08/17 12:15:39;;;;;;;33.70;13.65;;;17.10;99.90;;;;;;5028175;28;20041;-62
2021/08/17 12:18:16;;;;;;;24.92;12.65;;;17.10;99.90;;;;;;5027643;28;20025;-64
2021/08/17 12:20:57;;;;;;;26.48;12.68;;;17.20;99.90;;;;;;5024973;28;20026;-63
2021/08/17 12:26:15;;;;;;;27.90;11.95;;;17.10;99.90;;;;;;5043065;23;20133;-56
2021/08/17 12:28:43;;;;;;;23.40;12.00;;;17.10;99.90;;;;;;5024179;28;20095;-59
2021/08/17 12:31:08;;;;;;;27.88;13.60;;;17.10;99.90;;;;;;5009708;28;20034;-59
2021/08/17 12:33:34;;;;;;;22.27;11.60;;;17.10;99.90;;;;;;5009234;28;20041;-59